Time;durP1;ratioP1;P1;durP2;ratioP2;P2;SDS_P1;SDS_P2;PMS_P1;PMS_P2;Temp;Humidity;BMP_temperature;BMP_pressure;BME280_temperature;BME280_humidity;BME280_pressure;Samples;Min_cycle;Max_cycle;Signal;HPM_P1;HPM_P2
2022/10/18 00:02:05;;;;;;;0.40;0.30;;;;;;;10.00;54.53;96848.63;5114507;28;20440;-56
2022/10/18 00:04:34;;;;;;;0.40;0.30;;;;;;;10.14;53.99;96858.00;5114843;28;20427;-56
2022/10/18 00:07:02;;;;;;;0.40;0.30;;;;;;;9.85;55.27;96855.38;5114766;28;20468;-55
2022/10/18 00:09:32;;;;;;;0.40;0.30;;;;;;;10.10;54.57;96853.34;5114723;28;20431;-55
2022/10/18 00:12:00;;;;;;;0.40;0.30;;;;;;;10.35;54.48;96847.91;5114683;28;20422;-55
2022/10/18 00:14:29;;;;;;;0.40;0.30;;;;;;;10.65;53.05;96849.34;5113375;27;20899;-55
2022/10/18 00:16:57;;;;;;;0.50;0.30;;;;;;;10.48;52.97;96851.09;5114568;28;20430;-55
2022/10/18 00:19:26;;;;;;;0.40;0.30;;;;;;;10.07;53.21;96854.63;5114013;28;20477;-56
2022/10/18 00:21:56;;;;;;;0.40;0.30;;;;;;;10.09;53.14;96851.75;5114151;28;20435;-55
2022/10/18 00:24:24;;;;;;;0.40;0.20;;;;;;;9.64;54.08;96848.75;5113773;28;20486;-55
2022/10/18 00:26:54;;;;;;;0.80;0.80;;;;;;;9.45;55.55;96855.97;5114236;27;20437;-55
2022/10/18 00:29:22;;;;;;;0.40;0.20;;;;;;;9.85;54.15;96845.59;5114354;28;20427;-55
2022/10/18 00:31:51;;;;;;;0.40;0.30;;;;;;;9.90;53.23;96855.50;5114357;28;20430;-55
2022/10/18 00:34:19;;;;;;;0.40;0.30;;;;;;;10.06;52.49;96852.19;5114061;27;20532;-55
2022/10/18 00:36:47;;;;;;;0.40;0.30;;;;;;;10.16;53.39;96842.69;5114305;28;20479;-56
2022/10/18 00:39:18;;;;;;;0.70;0.33;;;;;;;9.76;54.68;96824.97;5113016;28;20479;-55
2022/10/18 00:41:47;;;;;;;0.50;0.33;;;;;;;10.42;57.11;96828.19;5113721;28;20425;-55
2022/10/18 00:44:52;;;;;;;0.60;0.30;;;;;;;10.14;54.19;96817.47;5113693;28;20821;-55
2022/10/18 00:47:22;;;;;;;0.40;0.20;;;;;;;10.36;57.31;96820.34;5113490;28;20423;-55
2022/10/18 00:49:56;;;;;;;0.50;0.43;;;;;;;10.18;55.27;96822.06;5113939;28;20783;-55
2022/10/18 00:52:27;;;;;;;0.40;0.30;;;;;;;10.35;55.25;96816.88;5113923;28;20431;-55
2022/10/18 00:54:58;;;;;;;0.40;0.20;;;;;;;10.13;55.69;96786.69;5113549;28;20422;-55
2022/10/18 00:57:26;;;;;;;0.40;0.20;;;;;;;10.59;54.53;96812.38;5125295;27;20445;-56
2022/10/18 00:59:55;;;;;;;0.40;0.30;;;;;;;10.61;54.80;96810.28;5133731;27;20473;-55
2022/10/18 01:02:25;;;;;;;0.87;0.87;;;;;;;10.67;54.25;96812.03;5134178;27;20426;-56
2022/10/18 01:04:54;;;;;;;0.70;0.70;;;;;;;10.27;55.43;96780.13;5133881;27;20425;-56
2022/10/18 01:07:34;;;;;;;0.40;0.30;;;;;;;10.24;56.15;96812.41;5134018;27;20453;-56
2022/10/18 01:10:15;;;;;;;0.40;0.30;;;;;;;10.17;56.08;96799.25;5133921;27;20432;-54
2022/10/18 01:12:53;;;;;;;0.40;0.20;;;;;;;9.95;55.36;96802.66;5133965;27;20422;-55
2022/10/18 01:15:30;;;;;;;0.40;0.20;;;;;;;9.72;56.21;96792.84;5132903;27;20487;-55
2022/10/18 01:18:09;;;;;;;0.40;0.30;;;;;;;9.33;61.01;96780.19;5133247;27;20439;-54
2022/10/18 01:21:18;;;;;;;0.40;0.20;;;;;;;9.79;59.24;96782.94;5133389;27;20481;-55
2022/10/18 01:24:18;;;;;;;0.40;0.20;;;;;;;9.97;56.39;96780.19;5132411;27;20457;-56
2022/10/18 01:27:10;;;;;;;0.53;0.40;;;;;;;9.97;60.48;96759.00;5133457;27;20787;-55
2022/10/18 01:29:50;;;;;;;0.40;0.20;;;;;;;10.33;57.32;96760.66;5133255;27;20445;-56
2022/10/18 01:32:24;;;;;;;0.30;0.20;;;;;;;10.51;56.22;96780.91;5133264;27;20512;-56
2022/10/18 01:34:58;;;;;;;0.30;0.20;;;;;;;9.83;57.00;96776.16;5133209;27;20434;-55
2022/10/18 01:37:28;;;;;;;0.40;0.27;;;;;;;10.07;55.38;96779.63;5133499;27;20448;-56
2022/10/18 01:40:02;;;;;;;0.40;0.30;;;;;;;9.03;57.16;96777.56;5133314;27;20471;-56
2022/10/18 01:42:31;;;;;;;0.40;0.30;;;;;;;7.82;61.55;96784.50;5133014;27;20445;-55
2022/10/18 01:45:02;;;;;;;1.50;0.50;;;;;;;6.90;62.18;96758.78;5133099;27;20965;-56
2022/10/18 01:47:33;;;;;;;0.40;0.30;;;;;;;6.89;63.67;96795.88;5133369;27;20438;-56
2022/10/18 01:50:05;;;;;;;0.40;0.20;;;;;;;6.84;63.46;96795.69;5132983;27;20424;-55
2022/10/18 01:52:33;;;;;;;0.50;0.50;;;;;;;6.91;63.20;96809.63;5132577;27;20418;-55
2022/10/18 01:55:04;;;;;;;0.40;0.30;;;;;;;6.90;63.20;96781.69;5132917;27;20437;-55
2022/10/18 01:57:38;;;;;;;0.40;0.30;;;;;;;7.38;61.96;96798.66;5133151;27;20434;-55
2022/10/18 02:00:12;;;;;;;0.40;0.20;;;;;;;7.66;60.86;96762.09;5133038;27;20485;-55
2022/10/18 02:02:48;;;;;;;0.40;0.20;;;;;;;8.41;60.17;96791.09;5133258;27;20420;-55
2022/10/18 02:05:28;;;;;;;0.40;0.20;;;;;;;7.53;62.46;96793.88;5132807;27;20933;-55
2022/10/18 02:08:04;;;;;;;0.40;0.30;;;;;;;8.43;63.44;96787.22;5132801;27;20440;-55
2022/10/18 02:10:54;;;;;;;0.50;0.30;;;;;;;8.98;61.62;96785.34;5132673;27;20431;-55
2022/10/18 02:13:27;;;;;;;0.50;0.40;;;;;;;9.26;61.09;96782.13;5132796;27;20423;-55
2022/10/18 02:16:00;;;;;;;0.50;0.40;;;;;;;8.89;58.56;96774.28;5132790;27;20918;-55
2022/10/18 02:18:36;;;;;;;0.40;0.20;;;;;;;8.49;58.81;96789.00;5132610;27;20430;-55
2022/10/18 02:21:08;;;;;;;0.60;0.43;;;;;;;8.63;58.65;96793.09;5132513;27;20480;-55
2022/10/18 02:23:57;;;;;;;0.40;0.20;;;;;;;9.03;57.84;96787.34;5132458;27;20417;-55
2022/10/18 02:26:26;;;;;;;0.40;0.33;;;;;;;9.19;59.40;96787.50;5132518;27;20451;-55
2022/10/18 02:28:55;;;;;;;0.40;0.30;;;;;;;7.73;60.98;96795.56;5132452;27;20434;-55
2022/10/18 02:31:29;;;;;;;2.70;0.60;;;;;;;7.26;62.84;96786.34;5132725;27;20444;-55
2022/10/18 02:34:02;;;;;;;0.50;0.30;;;;;;;7.98;65.43;96793.72;5132347;27;20434;-55
2022/10/18 02:36:34;;;;;;;0.80;0.80;;;;;;;8.12;65.52;96785.44;5132242;27;20806;-54
2022/10/18 02:39:07;;;;;;;0.40;0.30;;;;;;;8.71;68.75;96778.75;5132428;27;20430;-55
2022/10/18 02:41:36;;;;;;;0.40;0.30;;;;;;;8.73;61.57;96761.66;5132472;27;20430;-55
2022/10/18 02:44:04;;;;;;;0.40;0.30;;;;;;;7.60;63.60;96792.00;5132418;27;20426;-54
2022/10/18 02:46:34;;;;;;;0.50;0.30;;;;;;;7.76;72.33;96784.56;5132264;27;20437;-57
2022/10/18 02:49:06;;;;;;;0.33;0.20;;;;;;;8.65;67.67;96764.59;5132554;27;20429;-55
2022/10/18 02:51:35;;;;;;;0.43;0.30;;;;;;;8.99;64.68;96780.84;5132518;27;20829;-55
2022/10/18 02:54:03;;;;;;;0.40;0.30;;;;;;;8.43;61.95;96713.22;5132034;27;20432;-54
2022/10/18 02:56:31;;;;;;;0.70;0.40;;;;;;;7.90;62.84;96800.09;5132072;27;20488;-55
2022/10/18 02:59:00;;;;;;;0.40;0.30;;;;;;;7.53;64.76;96790.44;5132012;27;20434;-54
2022/10/18 03:01:28;;;;;;;0.30;0.20;;;;;;;8.40;62.92;96792.94;5131887;27;20468;-55
2022/10/18 03:03:58;;;;;;;0.40;0.30;;;;;;;8.32;61.32;96789.78;5132576;27;20474;-56
2022/10/18 03:06:28;;;;;;;0.40;0.30;;;;;;;7.06;63.92;96797.00;5135953;27;20429;-56
2022/10/18 03:08:56;;;;;;;0.60;0.60;;;;;;;6.13;66.75;96756.22;5136082;27;20417;-56
2022/10/18 03:11:25;;;;;;;0.97;0.93;;;;;;;7.68;69.54;96797.03;5136406;27;20424;-55
2022/10/18 03:13:53;;;;;;;0.40;0.30;;;;;;;8.10;65.33;96789.34;5136051;27;20433;-56
2022/10/18 03:16:21;;;;;;;0.97;0.87;;;;;;;7.65;63.87;96788.72;5136209;27;20433;-54
2022/10/18 03:18:49;;;;;;;0.40;0.30;;;;;;;7.99;64.22;96784.78;5135445;27;20426;-54
2022/10/18 03:21:18;;;;;;;0.40;0.30;;;;;;;6.74;65.18;96716.28;5135692;27;20474;-55
2022/10/18 03:23:47;;;;;;;0.50;0.50;;;;;;;7.98;63.22;96788.44;5135580;27;20423;-55
2022/10/18 03:26:16;;;;;;;0.40;0.20;;;;;;;7.76;62.47;96702.75;5136018;27;20426;-54
2022/10/18 03:28:44;;;;;;;0.33;0.27;;;;;;;8.56;61.99;96773.84;5135966;27;20422;-55
2022/10/18 03:31:13;;;;;;;0.40;0.30;;;;;;;8.23;62.09;96776.81;5135562;27;20797;-54
2022/10/18 03:33:41;;;;;;;0.30;0.30;;;;;;;7.85;62.66;96783.25;5135505;27;20436;-55
2022/10/18 03:36:09;;;;;;;0.40;0.20;;;;;;;8.08;62.15;96778.19;5135066;27;20449;-55
2022/10/18 03:38:38;;;;;;;0.30;0.20;;;;;;;7.57;62.82;96725.66;5135398;27;20449;-55
2022/10/18 03:41:08;;;;;;;0.57;0.50;;;;;;;8.15;62.23;96778.94;5135163;27;20469;-55
2022/10/18 03:43:36;;;;;;;0.30;0.20;;;;;;;8.06;62.58;96783.69;5135037;27;20438;-54
2022/10/18 03:46:05;;;;;;;0.50;0.50;;;;;;;7.72;63.36;96773.63;5135029;27;20902;-54
2022/10/18 03:48:33;;;;;;;0.40;0.20;;;;;;;8.04;63.10;96787.59;5135606;27;20434;-55
2022/10/18 03:51:01;;;;;;;0.40;0.30;;;;;;;8.05;62.25;96773.34;5135012;27;20968;-54
2022/10/18 03:53:30;;;;;;;0.70;0.70;;;;;;;8.06;63.12;96790.81;5135145;27;20430;-54
2022/10/18 03:55:58;;;;;;;0.60;0.40;;;;;;;7.96;63.42;96779.94;5135438;27;20426;-55
2022/10/18 03:58:28;;;;;;;0.30;0.30;;;;;;;8.17;62.70;96787.47;5135211;27;20429;-55
2022/10/18 04:00:56;;;;;;;0.73;0.73;;;;;;;8.07;63.46;96782.66;5135096;27;20469;-55
2022/10/18 04:03:24;;;;;;;0.40;0.40;;;;;;;7.29;65.05;96794.63;5135344;27;20432;-55
2022/10/18 04:05:53;;;;;;;1.40;1.40;;;;;;;6.54;68.61;96791.94;5135110;27;20419;-55
2022/10/18 04:08:21;;;;;;;1.33;0.97;;;;;;;6.09;70.42;96802.41;5134970;27;20426;-55
2022/10/18 04:10:51;;;;;;;0.47;0.37;;;;;;;7.16;69.53;96783.38;5134583;27;20425;-55
2022/10/18 04:13:21;;;;;;;4.83;0.87;;;;;;;6.89;66.43;96798.50;5134814;27;20923;-54
2022/10/18 04:15:51;;;;;;;6.63;0.70;;;;;;;6.72;68.03;96798.19;5134070;27;20424;-54
2022/10/18 04:18:19;;;;;;;0.60;0.50;;;;;;;7.29;64.60;96794.63;5134668;27;20441;-55
2022/10/18 04:20:47;;;;;;;0.50;0.40;;;;;;;7.72;64.60;96783.38;5134680;27;20481;-55
2022/10/18 04:23:15;;;;;;;0.97;0.77;;;;;;;7.01;64.77;96789.72;5135268;27;20430;-55
2022/10/18 04:25:44;;;;;;;0.80;0.80;;;;;;;6.73;66.00;96788.44;5134401;27;20474;-55
2022/10/18 04:28:12;;;;;;;0.50;0.33;;;;;;;7.15;65.35;96789.66;5134580;27;20972;-54
2022/10/18 04:30:40;;;;;;;0.40;0.30;;;;;;;7.64;63.90;96792.38;5134608;27;20421;-55
2022/10/18 04:33:10;;;;;;;0.93;0.83;;;;;;;6.40;67.24;96781.44;5134836;27;20521;-56
2022/10/18 04:35:38;;;;;;;3.70;0.87;;;;;;;7.16;66.31;96775.47;5134306;27;20432;-56
2022/10/18 04:38:08;;;;;;;1.40;0.70;;;;;;;7.34;66.36;96775.53;5134377;27;20434;-56
2022/10/18 04:40:37;;;;;;;0.53;0.53;;;;;;;7.61;64.56;96776.97;5134476;27;20474;-55
2022/10/18 04:43:05;;;;;;;0.40;0.37;;;;;;;6.97;66.07;96785.91;5134127;27;20425;-56
2022/10/18 04:45:34;;;;;;;0.50;0.40;;;;;;;7.53;68.59;96785.16;5134335;27;20429;-55
2022/10/18 04:48:02;;;;;;;0.30;0.30;;;;;;;7.93;65.09;96777.72;5134252;27;20423;-57
2022/10/18 04:50:32;;;;;;;1.20;0.60;;;;;;;7.91;63.31;96770.03;5134216;27;20781;-55
2022/10/18 04:53:00;;;;;;;0.90;0.90;;;;;;;7.95;63.26;96783.59;5133834;27;20952;-55
2022/10/18 04:55:28;;;;;;;0.50;0.43;;;;;;;7.94;63.33;96782.00;5134073;27;20430;-55
2022/10/18 04:57:56;;;;;;;1.10;0.50;;;;;;;7.33;65.48;96795.84;5133626;27;20432;-55
2022/10/18 05:00:25;;;;;;;0.60;0.50;;;;;;;7.46;65.04;96795.72;5134076;27;20430;-55
2022/10/18 05:02:56;;;;;;;0.50;0.40;;;;;;;7.79;64.26;96798.16;5134004;27;20430;-55
2022/10/18 05:05:25;;;;;;;0.83;0.47;;;;;;;7.00;66.17;96796.03;5133981;27;20925;-55
2022/10/18 05:08:14;;;;;;;0.70;0.70;;;;;;;6.63;67.30;96799.41;5134217;27;20430;-56
2022/10/18 05:10:43;;;;;;;0.40;0.40;;;;;;;6.64;67.63;96801.03;5133825;27;20437;-55
2022/10/18 05:13:11;;;;;;;3.80;1.00;;;;;;;6.86;67.31;96796.28;5134168;27;20422;-55
2022/10/18 05:15:39;;;;;;;1.93;0.97;;;;;;;7.02;66.81;96809.81;5133748;27;20449;-55
2022/10/18 05:18:07;;;;;;;0.60;0.43;;;;;;;7.16;66.73;96797.34;5133746;27;20429;-55
2022/10/18 05:20:36;;;;;;;0.40;0.30;;;;;;;6.86;67.52;96812.09;5133418;27;20433;-55
2022/10/18 05:23:04;;;;;;;0.40;0.40;;;;;;;6.85;67.56;96807.84;5133529;27;20933;-55
2022/10/18 05:25:34;;;;;;;28.97;0.90;;;;;;;7.46;65.98;96805.50;5133377;27;20461;-54
2022/10/18 05:28:02;;;;;;;0.87;0.70;;;;;;;7.65;65.00;96810.63;5132626;27;20434;-54
2022/10/18 05:30:38;;;;;;;0.40;0.30;;;;;;;7.11;66.00;96805.06;5132812;27;20838;-54
2022/10/18 05:33:07;;;;;;;1.83;1.63;;;;;;;7.35;66.19;96798.25;5133173;27;20430;-55
2022/10/18 05:35:36;;;;;;;0.90;0.90;;;;;;;7.82;65.25;96800.34;5133242;27;20418;-55
2022/10/18 05:38:05;;;;;;;0.57;0.57;;;;;;;7.93;64.02;96809.41;5133642;27;20428;-55
2022/10/18 05:40:38;;;;;;;0.73;0.73;;;;;;;8.70;61.88;96793.81;5133566;27;20447;-55
2022/10/18 05:43:06;;;;;;;1.07;0.97;;;;;;;9.13;60.93;96795.53;5133531;27;20873;-55
2022/10/18 05:45:35;;;;;;;0.87;0.67;;;;;;;9.42;60.12;96782.28;5133403;27;20432;-56
2022/10/18 05:48:04;;;;;;;0.60;0.50;;;;;;;9.94;58.62;96793.13;5133340;27;20438;-55
2022/10/18 05:50:32;;;;;;;0.40;0.40;;;;;;;9.97;58.78;96792.63;5133167;27;20468;-55
2022/10/18 05:53:06;;;;;;;0.80;0.70;;;;;;;10.40;58.76;96779.88;5133454;27;20440;-56
2022/10/18 05:55:52;;;;;;;0.60;0.53;;;;;;;10.82;56.14;96785.81;5133309;27;20977;-57
2022/10/18 05:58:21;;;;;;;0.87;0.87;;;;;;;11.41;55.16;96779.22;5133503;27;20434;-56
2022/10/18 06:00:50;;;;;;;0.50;0.50;;;;;;;11.80;53.89;96774.91;5133072;27;20449;-56
2022/10/18 06:03:19;;;;;;;1.67;1.13;;;;;;;11.97;52.87;96771.19;5132849;27;20503;-56
2022/10/18 06:05:47;;;;;;;0.80;0.80;;;;;;;12.52;51.94;96771.19;5132644;27;20421;-56
2022/10/18 06:08:15;;;;;;;1.50;1.37;;;;;;;12.82;51.49;96772.66;5132757;27;20430;-56
2022/10/18 06:10:44;;;;;;;2.57;1.00;;;;;;;13.36;50.43;96763.69;5132979;27;20425;-57
2022/10/18 06:13:13;;;;;;;1.37;0.97;;;;;;;13.44;51.14;96747.28;5132440;27;20429;-56
2022/10/18 06:15:42;;;;;;;3.37;1.43;;;;;;;13.72;50.16;96773.66;5132906;27;20440;-56
2022/10/18 06:18:10;;;;;;;0.73;0.57;;;;;;;13.87;49.06;96767.63;5132829;27;20506;-57
2022/10/18 06:20:39;;;;;;;0.87;0.87;;;;;;;13.94;47.80;96744.22;5133207;27;20429;-57
2022/10/18 06:23:08;;;;;;;0.47;0.30;;;;;;;14.47;46.59;96770.75;5132544;27;20483;-59
2022/10/18 06:25:39;;;;;;;2.93;2.73;;;;;;;14.68;46.41;96774.34;5132784;27;20857;-58
2022/10/18 06:28:08;;;;;;;1.73;1.53;;;;;;;12.92;50.16;96783.41;5133255;27;20435;-59
2022/10/18 06:30:40;;;;;;;6.33;4.00;;;;;;;12.47;51.50;96792.41;5133115;27;20997;-58
2022/10/18 06:33:10;;;;;;;10.33;2.77;;;;;;;12.25;51.71;96785.41;5133352;27;20435;-59
2022/10/18 06:35:39;;;;;;;0.70;0.70;;;;;;;11.80;53.12;96775.72;5133616;27;20421;-59
2022/10/18 06:38:07;;;;;;;6.63;2.87;;;;;;;12.56;51.13;96780.31;5133990;27;20429;-59
2022/10/18 06:40:36;;;;;;;1.23;1.03;;;;;;;12.84;51.14;96775.84;5140506;27;20418;-60
2022/10/18 06:43:06;;;;;;;0.73;0.70;;;;;;;12.77;51.34;96777.91;5140327;27;20473;-59
2022/10/18 06:45:49;;;;;;;0.83;0.83;;;;;;;13.72;49.73;96776.31;5142285;27;20474;-60
2022/10/18 06:48:19;;;;;;;1.13;1.03;;;;;;;14.92;46.92;96772.88;5141020;27;20428;-60
2022/10/18 06:50:55;;;;;;;0.60;0.50;;;;;;;14.15;47.91;96759.31;5139394;27;20449;-59
2022/10/18 06:53:24;;;;;;;0.40;0.30;;;;;;;14.77;47.45;96778.13;5139491;27;20456;-58
2022/10/18 06:55:52;;;;;;;1.20;1.10;;;;;;;15.24;46.21;96768.16;5139740;27;20422;-57
2022/10/18 06:58:20;;;;;;;0.93;0.93;;;;;;;14.55;46.87;96767.59;5139408;27;20453;-56
2022/10/18 07:00:50;;;;;;;0.90;0.70;;;;;;;15.17;46.20;96764.13;5139747;27;20417;-55
2022/10/18 07:03:19;;;;;;;1.13;1.13;;;;;;;15.67;46.03;96758.13;5139027;27;20478;-56
2022/10/18 07:05:47;;;;;;;0.60;0.50;;;;;;;16.12;44.34;96749.28;5139467;27;20457;-56
2022/10/18 07:08:16;;;;;;;1.03;1.03;;;;;;;17.15;43.53;96750.38;5138886;27;20426;-55
2022/10/18 07:10:52;;;;;;;2.20;2.07;;;;;;;17.02;42.46;96742.94;5139055;27;20434;-56
2022/10/18 07:13:21;;;;;;;0.73;0.70;;;;;;;17.29;42.19;96731.81;5138837;27;20433;-55
2022/10/18 07:16:08;;;;;;;1.00;0.53;;;;;;;17.90;41.38;96727.66;5138870;27;20433;-55
2022/10/18 07:18:43;;;;;;;2.10;0.50;;;;;;;18.80;52.93;96730.53;5138794;27;20422;-64
2022/10/18 07:21:14;;;;;;;0.70;0.40;;;;;;;18.65;46.06;96710.03;5138992;27;20423;-64
2022/10/18 07:23:45;;;;;;;2.00;0.77;;;;;;;18.52;40.92;96717.97;5138845;27;20489;-54
2022/10/18 07:26:16;;;;;;;1.00;0.40;;;;;;;19.70;41.41;96707.03;5138770;27;20442;-49
2022/10/18 07:28:47;;;;;;;0.60;0.60;;;;;;;20.29;39.35;96698.22;5138731;27;20793;-49
2022/10/18 07:31:17;;;;;;;0.67;0.60;;;;;;;20.49;37.78;96703.22;5138782;27;20422;-49
2022/10/18 07:33:45;;;;;;;2.53;2.33;;;;;;;19.69;38.13;96709.97;5138693;27;20412;-50
2022/10/18 07:36:14;;;;;;;4.73;1.80;;;;;;;19.98;37.85;96708.72;5138919;27;20432;-49
2022/10/18 07:38:43;;;;;;;0.90;0.90;;;;;;;19.48;36.13;96688.00;5138725;27;20426;-49
2022/10/18 07:41:13;;;;;;;1.10;1.07;;;;;;;19.91;36.56;96681.38;5138969;27;20449;-49
2022/10/18 07:43:46;;;;;;;0.50;0.40;;;;;;;19.30;35.68;96638.47;5138955;27;20488;-49
2022/10/18 07:46:16;;;;;;;0.47;0.30;;;;;;;19.61;36.40;96661.16;5138588;27;20472;-50
2022/10/18 07:48:45;;;;;;;2.00;0.50;;;;;;;20.57;35.82;96697.16;5138562;27;20426;-49
2022/10/18 07:51:14;;;;;;;5.70;1.47;;;;;;;21.96;35.27;96682.03;5135603;27;20432;-49
2022/10/18 07:53:42;;;;;;;1.37;0.40;;;;;;;23.63;34.04;96664.59;5135480;27;20457;-49
2022/10/18 07:56:15;;;;;;;0.60;0.40;;;;;;;22.11;33.02;96603.31;5135354;27;20439;-49
2022/10/18 07:58:44;;;;;;;1.53;0.43;;;;;;;21.99;34.38;96655.19;5135304;27;20445;-49
2022/10/18 08:01:13;;;;;;;3.30;1.17;;;;;;;21.77;33.79;96659.78;5134844;27;20432;-49
2022/10/18 08:03:43;;;;;;;2.40;1.90;;;;;;;21.48;35.38;96650.19;5135221;27;20459;-49
2022/10/18 08:06:14;;;;;;;0.90;0.90;;;;;;;22.25;34.55;96647.22;5135518;27;20818;-49
2022/10/18 08:08:42;;;;;;;0.73;0.60;;;;;;;21.72;33.75;96646.41;5135125;27;20423;-49
2022/10/18 08:11:13;;;;;;;6.53;1.93;;;;;;;20.01;34.75;96575.44;5135028;27;20438;-49
2022/10/18 08:13:42;;;;;;;1.53;0.93;;;;;;;20.70;34.45;96650.56;5135057;27;20432;-50
2022/10/18 08:16:13;;;;;;;0.40;0.30;;;;;;;21.84;33.79;96642.03;5135214;27;20935;-49
2022/10/18 08:18:43;;;;;;;0.60;0.60;;;;;;;22.40;33.26;96627.91;5135244;27;20422;-49
2022/10/18 08:21:13;;;;;;;0.63;0.60;;;;;;;22.97;32.94;96626.00;5135292;27;20437;-50
2022/10/18 08:23:41;;;;;;;0.47;0.30;;;;;;;23.77;31.65;96613.75;5134605;27;20493;-50
2022/10/18 08:26:11;;;;;;;1.00;0.70;;;;;;;24.94;29.85;96603.91;5134597;27;20438;-49
2022/10/18 08:28:40;;;;;;;9.43;0.73;;;;;;;25.05;29.67;96577.16;5134781;27;20442;-49
2022/10/18 08:31:20;;;;;;;0.60;0.60;;;;;;;24.50;30.54;96590.88;5134691;27;20445;-49
2022/10/18 08:33:50;;;;;;;1.83;1.30;;;;;;;24.20;30.42;96587.38;5134969;27;20443;-49
2022/10/18 08:36:18;;;;;;;0.87;0.50;;;;;;;25.09;30.20;96576.19;5134779;27;20938;-49
2022/10/18 08:38:48;;;;;;;0.60;0.50;;;;;;;24.28;31.15;96572.19;5134419;27;20431;-49
2022/10/18 08:41:35;;;;;;;0.50;0.50;;;;;;;23.91;30.94;96573.72;5134760;27;20500;-49
2022/10/18 08:44:09;;;;;;;0.80;0.80;;;;;;;25.14;30.13;96554.28;5134264;27;20521;-49
2022/10/18 08:46:41;;;;;;;0.60;0.53;;;;;;;25.75;29.38;96558.03;5134659;27;20821;-50
2022/10/18 08:49:27;;;;;;;2.63;0.47;;;;;;;25.80;28.92;96554.31;5134506;27;20435;-49
2022/10/18 08:51:57;;;;;;;0.83;0.83;;;;;;;26.14;29.68;96545.78;5134140;27;20776;-49
2022/10/18 08:54:34;;;;;;;0.70;0.57;;;;;;;25.34;28.92;96538.31;5134305;27;20435;-49
2022/10/18 08:57:06;;;;;;;4.53;1.17;;;;;;;25.66;28.67;96540.22;5134431;27;20430;-50
2022/10/18 08:59:39;;;;;;;0.50;0.40;;;;;;;26.83;27.53;96534.78;5134055;27;20431;-50
2022/10/18 09:02:20;;;;;;;2.90;2.80;;;;;;;26.93;27.43;96517.19;5133863;27;20434;-50
2022/10/18 09:04:58;;;;;;;0.40;0.40;;;;;;;27.01;27.01;96529.84;5133907;27;20931;-50
2022/10/18 09:07:59;;;;;;;0.60;0.50;;;;;;;27.71;26.40;96520.94;5133876;27;20416;-51
2022/10/18 09:10:40;;;;;;;0.40;0.30;;;;;;;27.30;26.41;96521.34;5133419;27;20442;-51
2022/10/18 09:13:27;;;;;;;1.20;0.67;;;;;;;27.28;27.65;96517.38;5133007;27;21019;-51
2022/10/18 09:15:58;;;;;;;0.50;0.50;;;;;;;27.02;26.99;96517.81;5133619;27;20438;-50
2022/10/18 09:18:46;;;;;;;0.60;0.40;;;;;;;26.24;27.94;96504.56;5133849;27;20821;-51
2022/10/18 09:21:21;;;;;;;0.57;0.50;;;;;;;26.78;27.07;96509.72;5133645;27;20422;-51
2022/10/18 09:23:54;;;;;;;0.53;0.53;;;;;;;25.16;28.26;96503.19;5133202;27;20481;-51
2022/10/18 09:26:24;;;;;;;1.57;0.67;;;;;;;25.57;27.54;96509.69;5133385;27;20430;-51
2022/10/18 09:29:03;;;;;;;0.63;0.50;;;;;;;26.96;26.40;96492.00;5133530;27;20427;-51
2022/10/18 09:31:44;;;;;;;1.30;1.30;;;;;;;27.16;26.86;96490.22;5133483;27;20525;-51
2022/10/18 09:34:19;;;;;;;1.57;1.27;;;;;;;27.81;26.22;96484.22;5133686;27;20426;-51
2022/10/18 09:36:51;;;;;;;0.43;0.30;;;;;;;28.17;25.61;96483.97;5133176;27;20453;-51
2022/10/18 09:39:24;;;;;;;1.27;1.27;;;;;;;28.07;26.49;96475.53;5132953;27;20420;-51
2022/10/18 09:41:56;;;;;;;3.70;0.87;;;;;;;28.99;25.02;96470.22;5133543;27;20438;-51
2022/10/18 09:44:27;;;;;;;1.03;0.43;;;;;;;29.00;24.94;96460.88;5133180;27;20970;-51
2022/10/18 09:47:00;;;;;;;0.40;0.40;;;;;;;28.06;25.58;96461.09;5133078;27;20426;-51
2022/10/18 09:49:32;;;;;;;0.60;0.43;;;;;;;28.71;24.98;96448.59;5133312;27;20427;-51
2022/10/18 09:52:08;;;;;;;5.03;0.57;;;;;;;29.30;24.97;96447.41;5132787;27;20475;-51
2022/10/18 09:54:42;;;;;;;0.40;0.30;;;;;;;29.08;24.92;96434.50;5133148;27;20878;-51
2022/10/18 09:57:15;;;;;;;0.50;0.40;;;;;;;28.87;24.90;96424.75;5133371;27;20945;-51
2022/10/18 09:59:46;;;;;;;0.60;0.50;;;;;;;28.56;25.14;96373.03;5132488;27;20422;-51
2022/10/18 10:02:16;;;;;;;0.70;0.70;;;;;;;30.02;24.27;96426.47;5132811;27;20441;-51
2022/10/18 10:04:45;;;;;;;0.50;0.40;;;;;;;29.89;23.41;96420.41;5132854;27;20477;-50
2022/10/18 10:07:18;;;;;;;0.40;0.40;;;;;;;31.12;22.35;96410.38;5132706;27;20429;-59
2022/10/18 10:09:48;;;;;;;0.50;0.40;;;;;;;31.19;21.57;96405.00;5132785;27;20427;-57
2022/10/18 10:12:27;;;;;;;0.50;0.33;;;;;;;30.13;24.04;96397.34;5136003;27;20422;-57
2022/10/18 10:15:08;;;;;;;1.47;0.50;;;;;;;30.64;22.85;96389.44;5132917;27;20433;-58
2022/10/18 10:17:36;;;;;;;0.60;0.50;;;;;;;30.57;22.99;96389.34;5132804;27;20434;-58
2022/10/18 10:20:17;;;;;;;0.40;0.30;;;;;;;29.96;22.67;96374.03;5132996;27;20415;-59
2022/10/18 10:22:48;;;;;;;0.50;0.40;;;;;;;30.10;22.88;96326.97;5132674;27;20430;-59
2022/10/18 10:25:23;;;;;;;0.40;0.30;;;;;;;30.78;22.65;96365.78;5132539;27;20857;-60
2022/10/18 10:27:52;;;;;;;0.60;0.50;;;;;;;29.97;22.45;96367.41;5131855;27;20433;-59
2022/10/18 10:30:28;;;;;;;0.70;0.30;;;;;;;30.68;22.29;96354.69;5132808;27;20426;-59
2022/10/18 10:32:57;;;;;;;0.40;0.30;;;;;;;31.46;22.93;96353.59;5132757;27;20422;-59
2022/10/18 10:35:31;;;;;;;0.40;0.40;;;;;;;31.56;23.15;96335.66;5132645;27;20912;-59
2022/10/18 10:38:26;;;;;;;0.50;0.50;;;;;;;31.31;21.81;96349.13;5132364;27;20486;-59
2022/10/18 10:40:55;;;;;;;0.40;0.30;;;;;;;29.65;23.17;96340.72;5133004;27;20544;-59
2022/10/18 10:43:26;;;;;;;0.40;0.40;;;;;;;30.65;23.13;96328.06;5132671;27;20427;-59
2022/10/18 10:46:12;;;;;;;1.27;0.33;;;;;;;31.77;22.81;96328.41;5132765;27;20806;-59
2022/10/18 10:48:51;;;;;;;0.60;0.60;;;;;;;32.68;21.28;96319.13;5132227;27;20800;-59
2022/10/18 10:51:40;;;;;;;0.50;0.50;;;;;;;31.71;21.38;96305.25;5132394;27;20853;-59
2022/10/18 10:54:17;;;;;;;3.23;0.40;;;;;;;31.65;21.38;96309.50;5132842;27;20422;-59
2022/10/18 10:56:55;;;;;;;0.70;0.50;;;;;;;31.30;22.40;96309.19;5132742;27;20453;-59
2022/10/18 10:59:25;;;;;;;0.30;0.27;;;;;;;32.42;21.21;96300.97;5132418;27;20926;-59
2022/10/18 11:02:20;;;;;;;0.50;0.50;;;;;;;33.45;21.35;96299.25;5132228;27;20423;-54
2022/10/18 11:04:49;;;;;;;0.40;0.33;;;;;;;32.12;20.73;96228.31;5132240;27;20489;-53
2022/10/18 11:07:25;;;;;;;0.50;0.30;;;;;;;32.24;19.02;96280.88;5132451;27;20426;-53
2022/10/18 11:10:01;;;;;;;0.30;0.30;;;;;;;33.22;18.48;96263.13;5131715;27;20433;-53
2022/10/18 11:12:33;;;;;;;0.30;0.30;;;;;;;34.39;18.72;96266.47;5132124;27;20418;-53
2022/10/18 11:15:17;;;;;;;0.40;0.30;;;;;;;34.63;16.64;96248.28;5132004;27;20435;-53
2022/10/18 11:17:54;;;;;;;0.50;0.30;;;;;;;33.04;17.19;96252.13;5132367;27;20434;-53
2022/10/18 11:20:27;;;;;;;0.30;0.30;;;;;;;31.99;17.64;96249.81;5132084;27;20430;-53
2022/10/18 11:23:01;;;;;;;0.40;0.30;;;;;;;32.42;17.55;96235.09;5132167;27;20922;-53
2022/10/18 11:25:46;;;;;;;0.40;0.30;;;;;;;33.19;17.60;96239.19;5132395;27;20836;-53
2022/10/18 11:28:22;;;;;;;0.50;0.40;;;;;;;33.26;17.34;96230.94;5135906;27;20725;-53
2022/10/18 11:31:05;;;;;;;0.40;0.30;;;;;;;33.55;16.79;96221.50;5135778;27;20543;-53
2022/10/18 11:33:45;;;;;;;0.40;0.30;;;;;;;33.98;16.73;96207.66;5135817;27;20422;-53
2022/10/18 11:36:41;;;;;;;0.47;0.43;;;;;;;33.80;16.25;96208.47;5135705;27;20434;-54
2022/10/18 11:39:37;;;;;;;0.40;0.33;;;;;;;33.17;16.61;96200.31;5135068;27;20683;-52
2022/10/18 11:42:17;;;;;;;0.30;0.20;;;;;;;32.93;16.84;96192.84;5135474;27;20433;-53
2022/10/18 11:44:57;;;;;;;0.40;0.30;;;;;;;33.55;15.26;96194.00;5135351;27;20639;-54
2022/10/18 11:47:33;;;;;;;0.33;0.27;;;;;;;34.34;15.08;96178.78;5135279;27;20210;-53
2022/10/18 11:50:12;;;;;;;0.60;0.50;;;;;;;33.67;16.74;96181.81;5135860;27;20189;-53
2022/10/18 11:52:51;;;;;;;0.30;0.30;;;;;;;33.01;16.83;96162.25;5135731;27;20180;-53
2022/10/18 11:55:41;;;;;;;0.40;0.30;;;;;;;33.30;16.74;96163.00;5135864;27;20188;-53
2022/10/18 11:58:27;;;;;;;0.40;0.40;;;;;;;33.53;16.91;96160.59;5135206;27;20196;-53
2022/10/18 12:01:04;;;;;;;0.37;0.30;;;;;;;33.13;17.30;96155.59;5135482;27;20196;-53
2022/10/18 12:03:50;;;;;;;1.07;0.50;;;;;;;32.50;18.00;96145.31;5135682;27;20430;-53